createdAt,value
2018-10-18T00:01:07.329Z,13.67
2018-10-18T00:03:37.669Z,13.65
2018-10-18T00:06:07.773Z,13.63
2018-10-18T00:08:37.462Z,13.62
2018-10-18T00:11:07.453Z,13.60
2018-10-18T00:13:37.374Z,13.59
2018-10-18T00:16:07.383Z,13.59
2018-10-18T00:18:37.266Z,13.61
2018-10-18T00:21:07.192Z,13.61
2018-10-18T00:23:37.123Z,13.57
2018-10-18T00:26:07.060Z,13.54
2018-10-18T00:28:37.004Z,13.56
2018-10-18T00:31:07.012Z,13.54
2018-10-18T00:33:36.960Z,13.53
2018-10-18T00:36:07.019Z,13.50
2018-10-18T00:38:36.922Z,13.47
2018-10-18T00:41:06.996Z,13.47
2018-10-18T00:43:37.010Z,13.44
2018-10-18T00:46:07.063Z,13.44
2018-10-18T00:48:36.919Z,13.43
2018-10-18T00:51:07.135Z,13.42
2018-10-18T00:53:37.097Z,13.41
2018-10-18T00:56:07.112Z,13.42
2018-10-18T00:58:36.882Z,13.40
2018-10-18T01:01:07.579Z,13.38
2018-10-18T01:03:37.492Z,13.36
2018-10-18T01:06:07.516Z,13.35
2018-10-18T01:08:37.249Z,13.37
2018-10-18T01:11:07.202Z,13.36
2018-10-18T01:13:37.052Z,13.38
2018-10-18T01:16:07.106Z,13.39
2018-10-18T01:18:37.051Z,13.39
2018-10-18T01:21:06.939Z,13.40
2018-10-18T01:23:36.804Z,13.40
2018-10-18T01:26:06.792Z,13.39
2018-10-18T01:28:36.701Z,13.39
2018-10-18T01:31:06.700Z,13.35
2018-10-18T01:33:36.712Z,13.31
2018-10-18T01:36:06.938Z,13.23
2018-10-18T01:38:36.704Z,13.20
2018-10-18T01:41:06.579Z,13.18
2018-10-18T01:43:36.521Z,13.17
2018-10-18T01:46:07.190Z,13.16
2018-10-18T01:48:36.984Z,13.19
2018-10-18T01:51:06.883Z,13.19
2018-10-18T01:53:36.763Z,13.18
2018-10-18T01:56:06.714Z,13.20
2018-10-18T01:58:36.463Z,13.20
2018-10-18T02:01:06.302Z,13.19
2018-10-18T02:03:36.085Z,13.17
2018-10-18T02:06:06.752Z,13.13
2018-10-18T02:08:36.474Z,13.11
2018-10-18T02:11:06.941Z,13.09
2018-10-18T02:13:36.971Z,13.09
2018-10-18T02:16:07.585Z,13.07
2018-10-18T02:18:37.389Z,13.06
2018-10-18T02:21:07.569Z,13.06
2018-10-18T02:23:37.405Z,13.08
2018-10-18T02:26:07.276Z,13.12
2018-10-18T02:28:37.079Z,13.16
2018-10-18T02:31:07.131Z,13.16
2018-10-18T02:33:36.991Z,13.09
2018-10-18T02:36:06.965Z,13.05
2018-10-18T02:38:36.783Z,13.03
2018-10-18T02:41:06.712Z,13.04
2018-10-18T02:43:36.533Z,13.03
2018-10-18T02:46:06.463Z,13.04
2018-10-18T02:48:36.260Z,13.04
2018-10-18T02:51:06.105Z,13.02
2018-10-18T02:53:36.003Z,13.00
2018-10-18T02:56:05.872Z,13.00
2018-10-18T02:58:35.804Z,12.98
2018-10-18T03:01:05.866Z,12.98
2018-10-18T03:03:35.699Z,12.93
2018-10-18T03:06:05.661Z,12.80
2018-10-18T03:08:35.524Z,12.94
2018-10-18T03:11:05.719Z,12.93
2018-10-18T03:13:35.482Z,12.90
2018-10-18T03:16:05.474Z,12.90
2018-10-18T03:18:35.205Z,12.88
2018-10-18T03:21:04.949Z,12.90
2018-10-18T03:23:34.761Z,12.90
2018-10-18T03:26:04.531Z,12.89
2018-10-18T03:28:34.304Z,12.89
2018-10-18T03:31:04.141Z,12.88
2018-10-18T03:33:33.941Z,12.90
2018-10-18T03:36:03.778Z,12.95
2018-10-18T03:38:33.548Z,12.94
2018-10-18T03:41:03.315Z,12.93
2018-10-18T03:43:33.102Z,12.90
2018-10-18T03:46:02.887Z,12.86
2018-10-18T03:48:32.723Z,12.85
2018-10-18T03:51:02.497Z,12.82
2018-10-18T03:53:32.346Z,12.81
2018-10-18T03:56:02.128Z,12.79
2018-10-18T03:58:31.952Z,12.79
2018-10-18T04:01:01.746Z,12.78
2018-10-18T04:03:31.613Z,12.79
2018-10-18T04:06:01.483Z,12.80
2018-10-18T04:08:31.357Z,12.80
2018-10-18T04:11:01.236Z,12.82
2018-10-18T04:13:31.188Z,12.82
2018-10-18T04:16:01.029Z,12.82
2018-10-18T04:18:30.965Z,12.81
2018-10-18T04:21:00.868Z,12.82
2018-10-18T04:23:32.780Z,12.81
2018-10-18T04:26:03.610Z,12.80
2018-10-18T04:28:34.180Z,12.80
2018-10-18T04:31:04.416Z,12.78
2018-10-18T04:33:34.314Z,12.79
2018-10-18T04:36:04.208Z,12.78
2018-10-18T04:38:34.033Z,12.77
2018-10-18T04:41:03.888Z,12.77
2018-10-18T04:43:33.776Z,12.76
2018-10-18T04:46:03.668Z,12.74
2018-10-18T04:48:33.644Z,12.71
2018-10-18T04:51:03.439Z,12.69
2018-10-18T04:53:33.287Z,12.67
2018-10-18T04:56:03.147Z,12.66
2018-10-18T04:58:32.961Z,12.64
2018-10-18T05:01:02.989Z,12.61
2018-10-18T05:03:32.770Z,12.58
2018-10-18T05:06:04.315Z,12.57
2018-10-18T05:08:34.230Z,12.57
2018-10-18T05:11:04.169Z,12.56
2018-10-18T05:13:34.024Z,12.54
2018-10-18T05:16:03.938Z,12.52
2018-10-18T05:18:33.827Z,12.53
2018-10-18T05:21:03.742Z,12.53
2018-10-18T05:23:33.645Z,12.50
2018-10-18T05:26:03.578Z,12.63
2018-10-18T05:28:33.473Z,12.76
2018-10-18T05:31:03.457Z,12.92
2018-10-18T05:33:33.348Z,12.90
2018-10-18T05:36:03.261Z,12.78
2018-10-18T05:38:33.158Z,12.72
2018-10-18T05:41:03.102Z,12.64
2018-10-18T05:43:33.045Z,12.63
2018-10-18T05:46:02.991Z,12.63
2018-10-18T05:48:32.958Z,12.61
2018-10-18T05:51:02.898Z,12.55
2018-10-18T05:53:32.730Z,12.61
2018-10-18T05:56:02.574Z,12.66
2018-10-18T05:58:32.391Z,12.78
2018-10-18T06:01:02.360Z,12.76
2018-10-18T06:03:32.247Z,12.74
2018-10-18T06:06:02.178Z,12.76
2018-10-18T06:08:31.944Z,12.77
2018-10-18T06:11:12.756Z,12.82
2018-10-18T06:13:42.645Z,12.90
2018-10-18T06:16:12.661Z,12.91
2018-10-18T06:18:42.604Z,12.97
2018-10-18T06:21:12.537Z,13.00
2018-10-18T06:23:42.383Z,13.05
2018-10-18T06:26:12.273Z,13.09
2018-10-18T06:28:42.257Z,13.16
2018-10-18T06:31:12.229Z,13.22
2018-10-18T06:33:42.033Z,13.27
2018-10-18T06:36:11.908Z,13.36
2018-10-18T06:38:41.767Z,13.47
2018-10-18T06:41:11.847Z,13.05
2018-10-18T06:43:42.442Z,13.57
2018-10-18T06:46:13.651Z,13.64
2018-10-18T06:48:44.075Z,13.71
2018-10-18T06:51:14.044Z,13.20
2018-10-18T06:53:43.972Z,13.76
2018-10-18T06:56:13.881Z,13.84
2018-10-18T06:58:43.781Z,13.93
2018-10-18T07:01:13.655Z,14.03
2018-10-18T07:03:43.542Z,14.13
2018-10-18T07:06:13.531Z,14.24
2018-10-18T07:08:43.390Z,14.35
2018-10-18T07:11:13.421Z,14.43
2018-10-18T07:13:43.420Z,14.48
2018-10-18T07:16:13.375Z,14.56
2018-10-18T07:18:43.325Z,14.65
2018-10-18T07:21:13.280Z,14.71
2018-10-18T07:23:43.221Z,14.74
2018-10-18T07:26:13.131Z,14.75
2018-10-18T07:28:43.071Z,14.78
2018-10-18T07:31:12.926Z,14.82
2018-10-18T07:33:42.845Z,14.88
2018-10-18T07:36:12.806Z,14.91
2018-10-18T07:38:42.683Z,14.95
2018-10-18T07:41:12.735Z,14.98
2018-10-18T07:43:42.590Z,15.03
2018-10-18T07:46:12.535Z,15.06
2018-10-18T07:48:42.370Z,15.16
2018-10-18T07:51:12.265Z,15.20
2018-10-18T07:53:42.256Z,15.22
2018-10-18T07:56:12.062Z,15.24
2018-10-18T07:58:41.927Z,15.27
2018-10-18T08:01:11.737Z,15.27
2018-10-18T08:03:41.639Z,15.27
2018-10-18T08:06:11.574Z,15.28
2018-10-18T08:08:41.357Z,15.21
2018-10-18T08:11:11.307Z,15.23
2018-10-18T08:13:40.984Z,15.32
2018-10-18T08:16:10.854Z,15.48
2018-10-18T08:18:40.815Z,15.62
2018-10-18T08:21:10.676Z,15.66
2018-10-18T08:23:40.636Z,15.79
2018-10-18T08:26:10.473Z,16.11
2018-10-18T08:28:40.358Z,16.51
2018-10-18T08:31:10.263Z,16.94
2018-10-18T08:33:40.118Z,17.16
2018-10-18T08:36:10.139Z,17.41
2018-10-18T08:38:39.982Z,17.65
2018-10-18T08:41:09.845Z,17.74
2018-10-18T08:43:39.716Z,17.75
2018-10-18T08:46:09.620Z,17.79
2018-10-18T08:48:39.578Z,17.79
2018-10-18T08:51:09.450Z,17.83
2018-10-18T08:53:39.320Z,17.99
2018-10-18T08:56:09.278Z,18.03
2018-10-18T08:58:39.246Z,17.94
2018-10-18T09:01:09.175Z,17.96
2018-10-18T09:03:38.991Z,18.10
2018-10-18T09:06:08.883Z,18.19
2018-10-18T09:08:38.774Z,18.31
2018-10-18T09:11:08.577Z,18.53
2018-10-18T09:13:38.634Z,18.35
2018-10-18T09:16:08.640Z,18.42
2018-10-18T09:18:38.526Z,18.47
2018-10-18T09:21:08.317Z,18.46
2018-10-18T09:23:38.208Z,18.58
2018-10-18T09:26:08.171Z,18.73
2018-10-18T09:28:38.005Z,18.91
2018-10-18T09:31:07.969Z,19.02
2018-10-18T09:33:37.907Z,19.13
2018-10-18T09:36:07.859Z,19.28
2018-10-18T09:38:37.817Z,19.45
2018-10-18T09:41:07.694Z,19.47
2018-10-18T09:43:37.653Z,19.57
2018-10-18T09:46:07.828Z,19.78
2018-10-18T09:48:37.729Z,19.82
2018-10-18T09:51:07.687Z,19.75
2018-10-18T09:53:37.540Z,19.50
2018-10-18T09:56:07.637Z,19.59
2018-10-18T09:58:37.440Z,19.56
2018-10-18T10:01:12.437Z,19.59
2018-10-18T10:03:42.370Z,19.72
2018-10-18T10:06:12.229Z,19.67
2018-10-18T10:08:42.207Z,19.76
2018-10-18T10:11:12.032Z,19.82
2018-10-18T10:13:42.051Z,19.88
2018-10-18T10:16:11.929Z,19.70
2018-10-18T10:18:41.744Z,19.78
2018-10-18T10:21:11.705Z,19.75
2018-10-18T10:23:41.582Z,19.67
2018-10-18T10:26:11.592Z,19.62
2018-10-18T10:28:41.506Z,19.58
2018-10-18T10:31:11.321Z,19.45
2018-10-18T10:33:41.278Z,19.35
2018-10-18T10:36:11.173Z,19.32
2018-10-18T10:38:41.141Z,19.42
2018-10-18T10:41:11.097Z,19.56
2018-10-18T10:43:40.775Z,19.69
2018-10-18T10:46:10.803Z,19.77
2018-10-18T10:48:40.719Z,19.97
2018-10-18T10:51:10.613Z,20.08
2018-10-18T10:53:40.565Z,20.19
2018-10-18T10:56:10.520Z,20.30
2018-10-18T10:58:40.449Z,20.52
2018-10-18T11:01:13.687Z,20.64
2018-10-18T11:03:43.998Z,20.76
2018-10-18T11:06:14.394Z,20.82
2018-10-18T11:08:44.313Z,20.81
2018-10-18T11:11:15.139Z,20.79
2018-10-18T11:13:45.209Z,20.82
2018-10-18T11:16:15.210Z,20.81
2018-10-18T11:18:45.208Z,20.71
2018-10-18T11:21:16.587Z,20.63
2018-10-18T11:23:46.584Z,20.52
2018-10-18T11:26:16.616Z,20.39
2018-10-18T11:28:46.508Z,20.39
2018-10-18T11:31:16.473Z,20.26
2018-10-18T11:33:46.447Z,20.24
2018-10-18T11:36:16.484Z,20.23
2018-10-18T11:38:46.431Z,20.20
2018-10-18T11:41:16.376Z,20.28
2018-10-18T11:43:46.398Z,20.34
2018-10-18T11:46:16.408Z,20.45
2018-10-18T11:48:46.347Z,20.60
2018-10-18T11:51:16.363Z,20.65
2018-10-18T11:53:46.359Z,20.56
2018-10-18T11:56:16.488Z,20.52
2018-10-18T11:58:46.475Z,20.70
2018-10-18T12:01:16.512Z,20.69
2018-10-18T12:03:46.511Z,20.62
2018-10-18T12:06:16.481Z,20.63
2018-10-18T12:08:46.518Z,20.59
2018-10-18T12:11:16.666Z,20.44
2018-10-18T12:13:46.753Z,20.37
2018-10-18T12:16:16.707Z,20.32
2018-10-18T12:18:46.791Z,20.35
2018-10-18T12:21:16.772Z,20.36
2018-10-18T12:23:46.890Z,20.35
2018-10-18T12:26:17.027Z,20.37
2018-10-18T12:28:47.150Z,20.43
2018-10-18T12:31:17.211Z,20.51
2018-10-18T12:33:47.257Z,20.43
2018-10-18T12:36:17.226Z,20.48
2018-10-18T12:38:47.375Z,20.11
2018-10-18T12:41:17.574Z,20.38
2018-10-18T12:43:47.605Z,20.34
2018-10-18T12:46:17.696Z,20.39
2018-10-18T12:48:47.780Z,20.36
2018-10-18T12:51:17.799Z,20.45
2018-10-18T12:53:47.830Z,20.48
2018-10-18T12:56:17.943Z,20.44
2018-10-18T12:58:47.761Z,20.40
2018-10-18T13:01:17.824Z,20.25
2018-10-18T13:03:47.759Z,20.17
2018-10-18T13:06:17.958Z,20.03
2018-10-18T13:08:47.957Z,19.91
2018-10-18T13:11:17.898Z,19.89
2018-10-18T13:13:47.961Z,19.84
2018-10-18T13:16:18.103Z,19.90
2018-10-18T13:18:48.262Z,19.82
2018-10-18T13:21:18.609Z,19.72
2018-10-18T13:23:48.676Z,19.69
2018-10-18T13:26:19.044Z,19.70
2018-10-18T13:28:49.385Z,19.66
2018-10-18T13:31:19.639Z,19.56
2018-10-18T13:33:49.669Z,19.47
2018-10-18T13:36:19.841Z,19.44
2018-10-18T13:38:49.802Z,19.44
2018-10-18T13:41:19.808Z,19.44
2018-10-18T13:43:49.810Z,19.46
2018-10-18T13:46:19.972Z,19.58
2018-10-18T13:48:50.135Z,19.55
2018-10-18T13:51:20.250Z,19.49
2018-10-18T13:53:50.255Z,19.43
2018-10-18T13:56:20.292Z,19.44
2018-10-18T13:58:50.416Z,19.49
2018-10-18T14:01:20.398Z,19.41
2018-10-18T14:03:50.400Z,19.34
2018-10-18T14:06:20.529Z,19.30
2018-10-18T14:08:50.607Z,19.28
2018-10-18T14:11:20.871Z,19.24
2018-10-18T14:13:50.924Z,19.12
2018-10-18T14:16:21.122Z,19.18
2018-10-18T14:18:51.245Z,19.23
2018-10-18T14:21:21.292Z,19.29
2018-10-18T14:23:51.478Z,19.29
2018-10-18T14:26:21.806Z,19.33
2018-10-18T14:28:51.887Z,19.30
2018-10-18T14:31:40.575Z,19.25
2018-10-18T14:34:10.473Z,19.20
2018-10-18T14:36:40.604Z,19.12
2018-10-18T14:39:11.229Z,19.06
2018-10-18T14:41:43.301Z,19.03
2018-10-18T14:44:13.567Z,19.06
2018-10-18T14:46:44.272Z,19.05
2018-10-18T14:49:14.549Z,18.92
2018-10-18T14:51:45.326Z,19.00
2018-10-18T14:54:15.793Z,18.95
2018-10-18T14:56:46.596Z,18.85
2018-10-18T14:59:17.899Z,18.83
2018-10-18T15:01:49.102Z,18.78
2018-10-18T15:04:20.206Z,18.72
2018-10-18T15:06:51.985Z,18.66
2018-10-18T15:09:23.562Z,18.65
2018-10-18T15:11:53.357Z,18.55
2018-10-18T15:14:23.528Z,18.48
2018-10-18T15:16:53.653Z,18.39
2018-10-18T15:19:23.734Z,17.47
2018-10-18T15:21:55.002Z,18.24
2018-10-18T15:24:25.589Z,18.14
2018-10-18T15:26:55.839Z,18.07
2018-10-18T15:29:25.596Z,18.00
2018-10-18T15:31:56.761Z,17.93
2018-10-18T15:34:27.432Z,17.88
2018-10-18T15:36:57.986Z,17.82
2018-10-18T15:39:28.933Z,17.76
2018-10-18T15:41:59.749Z,17.69
2018-10-18T15:44:29.857Z,17.63
2018-10-18T15:47:00.309Z,17.57
2018-10-18T15:49:33.153Z,17.48
2018-10-18T15:52:08.465Z,16.86
2018-10-18T15:54:39.160Z,17.34
2018-10-18T15:57:09.923Z,17.29
2018-10-18T16:02:26.914Z,17.11
2018-10-18T16:04:57.044Z,17.02
2018-10-18T16:07:27.841Z,16.93
2018-10-18T16:09:58.487Z,16.84
2018-10-18T16:12:28.903Z,16.76
2018-10-18T16:15:05.367Z,16.66
2018-10-18T16:17:35.396Z,16.59
2018-10-18T16:20:06.322Z,16.52
2018-10-18T16:22:37.130Z,16.45
2018-10-18T16:25:13.884Z,16.39
2018-10-18T16:27:44.891Z,16.34
2018-10-18T16:30:15.489Z,16.27
2018-10-18T16:32:47.412Z,16.21
2018-10-18T16:35:17.556Z,16.13
2018-10-18T16:37:54.450Z,16.07
2018-10-18T16:40:27.134Z,16.01
2018-10-18T16:42:59.521Z,15.97
2018-10-18T16:45:30.461Z,15.94
2018-10-18T16:48:02.399Z,15.90
2018-10-18T16:50:32.976Z,15.87
2018-10-18T16:53:03.413Z,15.87
2018-10-18T16:55:33.982Z,15.85
2018-10-18T16:58:05.793Z,15.83
2018-10-18T17:00:36.158Z,15.84
2018-10-18T17:03:06.063Z,15.84
2018-10-18T17:05:35.990Z,15.81
2018-10-18T17:08:07.194Z,15.76
2018-10-18T17:10:37.038Z,15.70
2018-10-18T17:13:08.949Z,15.66
2018-10-18T17:15:39.013Z,15.57
2018-10-18T17:18:09.147Z,15.52
2018-10-18T17:20:39.277Z,15.46
2018-10-18T17:23:09.554Z,15.42
2018-10-18T17:25:39.290Z,15.38
2018-10-18T17:28:10.347Z,15.39
2018-10-18T17:30:40.884Z,15.36
2018-10-18T17:33:15.045Z,15.33
2018-10-18T17:35:48.045Z,15.30
2018-10-18T17:38:18.678Z,15.27
2018-10-18T17:40:51.670Z,15.27
2018-10-18T17:43:22.479Z,15.24
2018-10-18T17:45:52.675Z,15.20
2018-10-18T17:48:24.092Z,15.18
2018-10-18T17:50:54.857Z,15.19
2018-10-18T17:53:24.864Z,15.16
2018-10-18T17:55:59.211Z,15.06
2018-10-18T17:58:29.201Z,15.03
2018-10-18T18:01:01.016Z,15.01
2018-10-18T18:03:31.762Z,15.00
2018-10-18T18:06:02.604Z,15.00
2018-10-18T18:08:33.345Z,14.98
2018-10-18T18:11:03.955Z,14.99
2018-10-18T18:13:34.509Z,14.96
2018-10-18T18:16:04.756Z,14.94
2018-10-18T18:18:36.763Z,14.92
2018-10-18T18:21:09.154Z,14.88
2018-10-18T18:23:39.607Z,14.83
2018-10-18T18:26:10.002Z,14.80
2018-10-18T18:28:40.198Z,14.77
2018-10-18T18:31:11.120Z,14.74
2018-10-18T18:33:41.528Z,14.73
2018-10-18T18:36:13.286Z,14.74
2018-10-18T18:38:43.713Z,14.76
2018-10-18T18:41:14.604Z,14.75
2018-10-18T18:43:45.641Z,14.73
2018-10-18T18:46:16.371Z,14.72
2018-10-18T18:48:47.345Z,14.68
2018-10-18T18:51:17.873Z,14.68
2018-10-18T18:53:48.680Z,14.64
2018-10-18T18:56:19.419Z,14.61
2018-10-18T18:58:49.748Z,14.60
2018-10-18T19:01:21.185Z,14.59
2018-10-18T19:03:52.655Z,14.60
2018-10-18T19:06:23.348Z,14.56
2018-10-18T19:08:54.012Z,13.03
2018-10-18T19:11:24.499Z,14.49
2018-10-18T19:13:55.013Z,14.46
2018-10-18T19:16:26.037Z,14.48
2018-10-18T19:18:56.818Z,14.47
2018-10-18T19:21:27.755Z,12.80
2018-10-18T19:23:58.415Z,14.50
2018-10-18T19:26:29.814Z,14.51
2018-10-18T19:29:00.017Z,14.52
2018-10-18T19:31:30.794Z,14.53
2018-10-18T19:34:01.849Z,14.52
2018-10-18T19:36:32.335Z,14.49
2018-10-18T19:39:02.663Z,14.48
2018-10-18T19:41:34.583Z,14.45
2018-10-18T19:44:06.206Z,14.41
2018-10-18T19:46:37.076Z,14.36
2018-10-18T19:49:07.527Z,14.33
2018-10-18T19:51:38.292Z,14.29
2018-10-18T19:54:08.468Z,14.27
2018-10-18T19:56:38.684Z,14.20
2018-10-18T19:59:09.214Z,14.14
2018-10-18T20:01:40.684Z,14.09
2018-10-18T20:04:10.982Z,14.07
2018-10-18T20:06:41.563Z,14.04
2018-10-18T20:09:13.390Z,14.04
2018-10-18T20:11:43.796Z,14.03
2018-10-18T20:14:14.506Z,14.02
2018-10-18T20:16:44.655Z,14.04
2018-10-18T20:19:15.408Z,14.04
2018-10-18T20:21:45.644Z,14.07
2018-10-18T20:24:15.995Z,14.11
2018-10-18T20:26:46.273Z,14.11
2018-10-18T20:29:17.265Z,14.11
2018-10-18T20:31:47.951Z,14.12
2018-10-18T20:34:18.448Z,14.12
2018-10-18T20:36:49.217Z,14.12
2018-10-18T20:39:19.395Z,14.10
2018-10-18T20:41:49.913Z,14.10
2018-10-18T20:44:20.853Z,14.09
2018-10-18T20:46:51.324Z,14.10
2018-10-18T20:49:21.680Z,14.09
2018-10-18T20:51:51.620Z,14.09
2018-10-18T20:54:22.453Z,14.08
2018-10-18T20:56:53.296Z,14.11
2018-10-18T20:59:23.668Z,14.14
2018-10-18T21:01:54.864Z,14.16
2018-10-18T21:04:25.534Z,14.20
2018-10-18T21:06:55.797Z,14.19
2018-10-18T21:09:26.798Z,14.18
2018-10-18T21:11:57.508Z,14.17
2018-10-18T21:14:27.759Z,14.17
2018-10-18T21:16:57.858Z,14.17
2018-10-18T21:19:29.265Z,14.18
2018-10-18T21:21:59.814Z,14.18
2018-10-18T21:24:30.168Z,14.23
2018-10-18T21:27:01.077Z,14.28
2018-10-18T21:29:32.157Z,14.28
2018-10-18T21:32:02.395Z,14.26
2018-10-18T21:34:32.469Z,14.04
2018-10-18T21:37:02.790Z,13.89
2018-10-18T21:39:34.972Z,13.92
2018-10-18T21:42:05.711Z,13.94
2018-10-18T21:44:37.639Z,13.57
2018-10-18T21:47:07.812Z,13.94
2018-10-18T21:49:38.709Z,13.96
2018-10-18T21:52:09.205Z,13.96
2018-10-18T21:54:39.277Z,13.92
2018-10-18T21:57:09.684Z,13.92
2018-10-18T21:59:41.110Z,13.95
2018-10-18T22:02:11.404Z,13.95
2018-10-18T22:04:42.357Z,13.95
2018-10-18T22:07:12.667Z,13.96
2018-10-18T22:09:43.300Z,13.97
2018-10-18T22:12:13.446Z,13.98
2018-10-18T22:14:43.613Z,13.99
2018-10-18T22:17:15.418Z,14.01
2018-10-18T22:19:45.406Z,14.02
2018-10-18T22:22:15.439Z,14.03
2018-10-18T22:24:46.390Z,14.04
2018-10-18T22:27:16.996Z,14.06
2018-10-18T22:29:48.370Z,14.07
2018-10-18T22:32:18.605Z,14.12
2018-10-18T22:34:48.897Z,14.15
2018-10-18T22:37:18.967Z,13.43
2018-10-18T22:39:48.955Z,14.16
2018-10-18T22:42:19.408Z,14.16
2018-10-18T22:44:51.166Z,14.17
2018-10-18T22:47:21.217Z,14.18
2018-10-18T22:49:51.248Z,14.17
2018-10-18T22:52:21.804Z,14.12
2018-10-18T22:54:51.769Z,14.12
2018-10-18T22:57:22.170Z,14.11
2018-10-18T22:59:52.376Z,14.09
2018-10-18T23:02:22.914Z,14.10
2018-10-18T23:04:53.213Z,14.09
2018-10-18T23:07:24.819Z,14.11
2018-10-18T23:09:54.869Z,14.16
2018-10-18T23:12:24.865Z,14.21
2018-10-18T23:14:54.896Z,14.19
2018-10-18T23:17:25.095Z,14.19
2018-10-18T23:19:55.187Z,14.18
2018-10-18T23:22:25.160Z,14.18
2018-10-18T23:24:55.492Z,14.17
2018-10-18T23:27:29.827Z,14.21
2018-10-18T23:29:59.794Z,14.21
2018-10-18T23:32:30.006Z,14.19
2018-10-18T23:35:01.061Z,14.10
2018-10-18T23:37:31.407Z,14.00
2018-10-18T23:40:01.911Z,14.01
2018-10-18T23:42:32.356Z,14.01
2018-10-18T23:45:02.734Z,14.04
2018-10-18T23:47:33.428Z,14.06
2018-10-18T23:50:04.464Z,14.08
2018-10-18T23:52:34.513Z,14.07
2018-10-18T23:55:05.342Z,14.10
2018-10-18T23:57:35.204Z,14.11
